createdAt,value
2019-02-25T00:00:45.321Z,75.12
2019-02-25T00:05:49.662Z,75.09
2019-02-25T00:10:54.046Z,75.04
2019-02-25T00:15:58.420Z,72.10
2019-02-25T00:21:02.821Z,72.98
2019-02-25T00:26:07.175Z,73.25
2019-02-25T00:31:11.549Z,71.17
2019-02-25T00:36:15.926Z,68.42
2019-02-25T00:41:20.343Z,71.21
2019-02-25T00:46:24.744Z,69.78
2019-02-25T00:51:29.074Z,71.01
2019-02-25T00:56:33.433Z,71.26
2019-02-25T01:01:37.835Z,71.40
2019-02-25T01:06:42.197Z,71.15
2019-02-25T01:11:46.561Z,69.92
2019-02-25T01:16:50.995Z,70.73
2019-02-25T01:21:55.354Z,70.32
2019-02-25T01:26:59.706Z,69.97
2019-02-25T01:32:04.048Z,72.79
2019-02-25T01:37:08.403Z,72.60
2019-02-25T01:42:12.811Z,73.57
2019-02-25T01:47:17.201Z,75.10
2019-02-25T01:52:21.589Z,73.76
2019-02-25T01:57:25.953Z,72.79
2019-02-25T02:02:30.330Z,71.76
2019-02-25T02:07:34.705Z,72.02
2019-02-25T02:12:39.115Z,70.60
2019-02-25T02:17:43.482Z,70.58
2019-02-25T02:22:47.842Z,71.65
2019-02-25T02:27:52.197Z,71.53
2019-02-25T02:32:57.721Z,72.11
2019-02-25T02:38:02.070Z,72.52
2019-02-25T02:43:06.783Z,72.40
2019-02-25T02:48:20.332Z,70.85
2019-02-25T02:53:24.680Z,73.02
2019-02-25T02:58:29.033Z,72.71
2019-02-25T03:03:33.454Z,72.68
2019-02-25T03:08:37.790Z,72.59
2019-02-25T03:13:42.159Z,73.98
2019-02-25T03:18:46.554Z,72.21
2019-02-25T03:23:50.937Z,73.00
2019-02-25T03:28:55.300Z,71.89
2019-02-25T03:33:59.660Z,73.06
2019-02-25T03:39:05.688Z,72.10
2019-02-25T03:44:10.139Z,73.22
2019-02-25T03:49:14.486Z,73.54
2019-02-25T03:54:18.896Z,72.51
2019-02-25T03:59:23.286Z,74.31
2019-02-25T04:04:27.754Z,73.61
2019-02-25T04:09:32.441Z,71.21
2019-02-25T04:14:36.988Z,74.89
2019-02-25T04:19:41.353Z,74.40
2019-02-25T04:24:45.687Z,74.01
2019-02-25T04:29:50.083Z,72.98
2019-02-25T04:34:55.491Z,73.36
2019-02-25T04:39:59.880Z,73.40
2019-02-25T04:45:06.646Z,73.02
2019-02-25T04:50:12.155Z,72.19
2019-02-25T04:55:16.511Z,73.08
2019-02-25T05:00:23.292Z,74.06
2019-02-25T05:05:27.619Z,73.64
2019-02-25T05:10:32.000Z,74.68
2019-02-25T05:15:37.806Z,73.54
2019-02-25T05:20:42.329Z,72.65
2019-02-25T05:25:46.713Z,74.38
2019-02-25T05:30:51.550Z,72.90
2019-02-25T05:35:57.573Z,70.82
2019-02-25T05:41:01.952Z,72.66
2019-02-25T05:46:06.435Z,72.82
2019-02-25T05:51:11.589Z,73.86
2019-02-25T05:56:16.272Z,73.86
2019-02-25T06:01:20.680Z,73.03
2019-02-25T06:06:25.063Z,72.96
2019-02-25T06:11:29.410Z,73.82
2019-02-25T06:16:33.800Z,73.84
2019-02-25T06:21:38.280Z,75.85
2019-02-25T06:26:43.636Z,74.27
2019-02-25T06:31:48.179Z,75.15
2019-02-25T06:36:53.121Z,74.06
2019-02-25T06:41:57.608Z,70.67
2019-02-25T06:47:02.039Z,71.52
2019-02-25T06:52:06.416Z,70.81
2019-02-25T06:57:10.764Z,68.20
2019-02-25T07:02:15.157Z,70.06
2019-02-25T07:07:21.156Z,68.83
2019-02-25T07:12:32.975Z,68.60
2019-02-25T07:17:57.048Z,68.31
2019-02-25T07:23:06.000Z,66.90
2019-02-25T07:28:28.332Z,65.42
2019-02-25T07:33:34.377Z,64.73
2019-02-25T07:38:40.418Z,65.67
2019-02-25T07:43:55.417Z,64.97
2019-02-25T07:49:16.693Z,63.47
2019-02-25T07:54:25.400Z,64.61
2019-02-25T07:59:31.509Z,64.65
2019-02-25T08:04:43.428Z,63.60
2019-02-25T08:09:50.495Z,64.57
2019-02-25T08:14:56.649Z,64.41
2019-02-25T08:20:19.123Z,64.65
2019-02-25T08:25:25.143Z,65.47
2019-02-25T08:30:31.131Z,63.44
2019-02-25T08:36:04.730Z,64.52
2019-02-25T08:41:12.435Z,62.58
2019-02-25T08:46:27.696Z,60.76
2019-02-25T08:51:32.136Z,60.38
2019-02-25T08:56:36.612Z,62.48
2019-02-25T09:01:40.957Z,60.87
2019-02-25T09:06:45.375Z,58.20
2019-02-25T09:11:49.743Z,57.45
2019-02-25T09:16:54.157Z,55.89
2019-02-25T09:21:58.581Z,58.11
2019-02-25T09:27:02.957Z,56.06
2019-02-25T09:32:07.327Z,54.26
2019-02-25T09:37:11.790Z,52.97
2019-02-25T09:42:16.135Z,51.14
2019-02-25T09:47:20.593Z,49.76
2019-02-25T09:52:24.968Z,47.31
2019-02-25T09:57:29.367Z,46.06
2019-02-25T10:02:34.691Z,46.74
2019-02-25T10:07:39.099Z,45.68
2019-02-25T10:12:43.437Z,45.67
2019-02-25T10:17:47.829Z,47.29
2019-02-25T10:22:52.171Z,46.38
2019-02-25T10:27:56.555Z,45.86
2019-02-25T10:33:00.984Z,46.11
2019-02-25T10:38:05.515Z,46.42
2019-02-25T10:43:09.901Z,46.56
2019-02-25T10:48:15.218Z,44.31
2019-02-25T10:53:22.114Z,43.34
2019-02-25T10:58:26.964Z,42.61
2019-02-25T11:03:32.512Z,40.50
2019-02-25T11:08:39.469Z,39.26
2019-02-25T11:13:44.187Z,39.64
2019-02-25T11:18:50.670Z,39.81
2019-02-25T11:23:54.952Z,39.81
2019-02-25T11:28:59.277Z,39.41
2019-02-25T11:34:05.595Z,38.59
2019-02-25T11:39:09.911Z,37.48
2019-02-25T11:44:14.304Z,35.46
2019-02-25T11:49:18.721Z,34.36
2019-02-25T11:54:23.098Z,34.24
2019-02-25T11:59:27.518Z,33.89
2019-02-25T12:04:32.408Z,31.84
2019-02-25T12:09:36.772Z,32.21
2019-02-25T12:14:41.145Z,32.92
2019-02-25T12:19:46.584Z,32.58
2019-02-25T12:24:51.062Z,32.81
2019-02-25T12:29:55.420Z,33.95
2019-02-25T12:34:59.771Z,34.40
2019-02-25T12:40:06.433Z,34.53
2019-02-25T12:45:14.938Z,34.13
2019-02-25T12:50:19.939Z,33.77
2019-02-25T12:55:24.315Z,34.65
2019-02-25T13:00:28.797Z,34.72
2019-02-25T13:05:33.182Z,33.85
2019-02-25T13:10:37.597Z,34.03
2019-02-25T13:15:41.987Z,33.65
2019-02-25T13:20:46.416Z,34.92
2019-02-25T13:25:50.793Z,33.30
2019-02-25T13:30:55.140Z,33.27
2019-02-25T13:35:59.525Z,33.90
2019-02-25T13:41:03.862Z,33.17
2019-02-25T13:46:08.257Z,33.03
2019-02-25T13:51:12.582Z,33.69
2019-02-25T13:56:16.988Z,33.24
2019-02-25T14:01:21.400Z,33.46
2019-02-25T14:06:25.839Z,33.48
2019-02-25T14:11:30.209Z,33.54
2019-02-25T14:16:34.609Z,33.43
2019-02-25T14:21:39.071Z,32.51
2019-02-25T14:26:43.418Z,32.45
2019-02-25T14:31:51.016Z,32.74
2019-02-25T14:36:56.807Z,33.07
2019-02-25T14:42:01.832Z,33.08
2019-02-25T14:47:19.292Z,33.42
2019-02-25T14:52:13.124Z,32.69
2019-02-25T14:57:17.488Z,31.95
2019-02-25T15:02:21.919Z,31.59
2019-02-25T15:07:26.319Z,32.15
2019-02-25T15:12:32.127Z,33.58
2019-02-25T15:17:36.788Z,33.32
2019-02-25T15:22:42.472Z,33.63
2019-02-25T15:27:48.118Z,34.43
2019-02-25T15:32:55.596Z,34.30
2019-02-25T15:38:00.424Z,34.18
2019-02-25T15:43:15.091Z,35.50
2019-02-25T15:48:22.603Z,35.75
2019-02-25T15:53:27.485Z,35.86
2019-02-25T15:58:32.025Z,36.77
2019-02-25T16:03:37.162Z,36.94
2019-02-25T16:08:47.511Z,36.93
2019-02-25T16:13:53.191Z,37.76
2019-02-25T16:18:57.183Z,37.92
2019-02-25T16:24:04.207Z,38.68
2019-02-25T16:29:09.130Z,39.42
2019-02-25T16:34:16.440Z,39.91
2019-02-25T16:39:22.188Z,40.47
2019-02-25T16:44:26.594Z,40.79
2019-02-25T16:49:31.695Z,40.88
2019-02-25T16:54:38.041Z,40.88
2019-02-25T16:59:42.427Z,41.70
2019-02-25T17:04:46.978Z,42.13
2019-02-25T17:09:51.371Z,42.34
2019-02-25T17:14:55.776Z,42.49
2019-02-25T17:20:00.185Z,42.82
2019-02-25T17:25:08.191Z,43.70
2019-02-25T17:30:19.593Z,44.06
2019-02-25T17:35:26.599Z,44.19
2019-02-25T17:40:31.248Z,44.78
2019-02-25T17:45:37.324Z,45.24
2019-02-25T17:50:42.002Z,45.30
2019-02-25T17:55:46.335Z,45.79
2019-02-25T18:00:50.858Z,45.72
2019-02-25T18:05:56.827Z,45.83
2019-02-25T18:11:01.402Z,46.58
2019-02-25T18:16:07.985Z,47.14
2019-02-25T18:21:13.710Z,48.25
2019-02-25T18:26:18.217Z,48.54
2019-02-25T18:31:22.638Z,48.80
2019-02-25T18:36:28.824Z,49.61
2019-02-25T18:41:34.310Z,50.03
2019-02-25T18:46:38.858Z,48.31
2019-02-25T18:51:43.310Z,50.60
2019-02-25T18:56:47.686Z,51.83
2019-02-25T19:01:54.097Z,54.51
2019-02-25T19:06:59.786Z,53.48
2019-02-25T19:12:04.908Z,54.27
2019-02-25T19:17:09.296Z,54.38
2019-02-25T19:22:15.811Z,54.49
2019-02-25T19:27:19.979Z,53.35
2019-02-25T19:32:24.392Z,57.17
2019-02-25T19:37:31.103Z,60.44
2019-02-25T19:42:36.402Z,58.09
2019-02-25T19:47:43.146Z,55.90
2019-02-25T19:52:47.109Z,56.20
2019-02-25T19:57:51.513Z,59.48
2019-02-25T20:03:05.750Z,59.02
2019-02-25T20:08:08.401Z,57.72
2019-02-25T20:13:12.840Z,60.38
2019-02-25T20:18:18.349Z,57.01
2019-02-25T20:23:24.969Z,58.48
2019-02-25T20:28:29.274Z,54.74
2019-02-25T20:33:35.174Z,55.14
2019-02-25T20:38:40.120Z,57.94
2019-02-25T20:43:47.299Z,60.51
2019-02-25T20:48:52.705Z,60.02
2019-02-25T20:53:58.804Z,59.23
2019-02-25T20:59:05.450Z,57.15
2019-02-25T21:04:11.359Z,55.80
2019-02-25T21:09:15.655Z,57.48
2019-02-25T21:14:20.162Z,59.48
2019-02-25T21:19:24.552Z,61.54
2019-02-25T21:24:31.033Z,57.78
2019-02-25T21:29:38.332Z,58.34
2019-02-25T21:34:41.288Z,59.99
2019-02-25T21:39:45.661Z,60.25
2019-02-25T21:44:50.714Z,62.74
2019-02-25T21:49:58.742Z,63.16
2019-02-25T21:55:04.686Z,60.77
2019-02-25T22:00:14.963Z,60.28
2019-02-25T22:05:21.360Z,63.12
2019-02-25T22:10:26.021Z,62.83
2019-02-25T22:15:30.508Z,61.89
2019-02-25T22:20:37.642Z,62.67
2019-02-25T22:25:41.003Z,62.80
2019-02-25T22:30:47.381Z,62.35
2019-02-25T22:35:51.961Z,62.01
2019-02-25T22:40:59.419Z,62.59
2019-02-25T22:46:04.767Z,60.36
2019-02-25T22:51:08.859Z,60.30
2019-02-25T22:56:15.431Z,60.85
2019-02-25T23:01:19.404Z,60.17
2019-02-25T23:06:25.387Z,61.65
2019-02-25T23:11:29.921Z,61.89
2019-02-25T23:16:34.292Z,61.74
2019-02-25T23:21:39.536Z,63.43
2019-02-25T23:26:43.897Z,62.59
2019-02-25T23:31:48.574Z,62.31
2019-02-25T23:36:54.407Z,63.55
2019-02-25T23:42:00.678Z,65.22
2019-02-25T23:47:07.118Z,66.45
2019-02-25T23:52:11.448Z,66.80
2019-02-25T23:57:17.305Z,65.84
